sensor_id;sensor_type;location;lat;lon;timestamp;temperature;humidity
2497;DHT22;1259;48.306;14.374;2023-08-31T00:01:57;14.30;99.90
2497;DHT22;1259;48.306;14.374;2023-08-31T00:04:24;14.20;99.90
2497;DHT22;1259;48.306;14.374;2023-08-31T00:06:51;14.20;99.90
2497;DHT22;1259;48.306;14.374;2023-08-31T00:09:18;14.00;99.90
2497;DHT22;1259;48.306;14.374;2023-08-31T00:11:44;14.00;99.90
2497;DHT22;1259;48.306;14.374;2023-08-31T00:14:11;14.00;99.90
2497;DHT22;1259;48.306;14.374;2023-08-31T00:16:39;14.10;99.90
2497;DHT22;1259;48.306;14.374;2023-08-31T00:19:06;14.00;99.90
2497;DHT22;1259;48.306;14.374;2023-08-31T00:21:32;14.10;99.90
2497;DHT22;1259;48.306;14.374;2023-08-31T00:23:59;14.10;99.90
2497;DHT22;1259;48.306;14.374;2023-08-31T00:26:26;14.10;99.90
2497;DHT22;1259;48.306;14.374;2023-08-31T00:28:52;14.10;99.90
2497;DHT22;1259;48.306;14.374;2023-08-31T00:31:19;14.10;99.90
2497;DHT22;1259;48.306;14.374;2023-08-31T00:33:48;14.10;99.90
2497;DHT22;1259;48.306;14.374;2023-08-31T00:36:15;14.00;99.90
2497;DHT22;1259;48.306;14.374;2023-08-31T00:38:43;13.90;99.90
2497;DHT22;1259;48.306;14.374;2023-08-31T00:41:10;14.00;99.90
2497;DHT22;1259;48.306;14.374;2023-08-31T00:43:36;14.00;99.90
2497;DHT22;1259;48.306;14.374;2023-08-31T00:46:03;14.00;99.90
2497;DHT22;1259;48.306;14.374;2023-08-31T00:48:30;14.00;99.90
2497;DHT22;1259;48.306;14.374;2023-08-31T00:50:58;14.00;99.90
2497;DHT22;1259;48.306;14.374;2023-08-31T00:53:26;14.00;99.90
2497;DHT22;1259;48.306;14.374;2023-08-31T00:55:53;14.00;99.90
2497;DHT22;1259;48.306;14.374;2023-08-31T00:58:19;14.00;99.90
2497;DHT22;1259;48.306;14.374;2023-08-31T01:00:47;14.00;99.90
2497;DHT22;1259;48.306;14.374;2023-08-31T01:03:17;14.10;99.90
2497;DHT22;1259;48.306;14.374;2023-08-31T01:05:49;14.00;99.90
2497;DHT22;1259;48.306;14.374;2023-08-31T01:08:21;14.00;99.90
2497;DHT22;1259;48.306;14.374;2023-08-31T01:10:56;14.10;99.90
2497;DHT22;1259;48.306;14.374;2023-08-31T01:13:25;14.00;99.90
2497;DHT22;1259;48.306;14.374;2023-08-31T01:15:52;14.10;99.90
2497;DHT22;1259;48.306;14.374;2023-08-31T01:18:21;14.10;99.90
2497;DHT22;1259;48.306;14.374;2023-08-31T01:20:52;14.20;99.90
2497;DHT22;1259;48.306;14.374;2023-08-31T01:23:21;14.10;99.90
2497;DHT22;1259;48.306;14.374;2023-08-31T01:25:51;14.00;99.90
2497;DHT22;1259;48.306;14.374;2023-08-31T01:28:17;13.90;99.90
2497;DHT22;1259;48.306;14.374;2023-08-31T01:30:44;13.70;99.90
2497;DHT22;1259;48.306;14.374;2023-08-31T01:33:11;13.70;99.90
2497;DHT22;1259;48.306;14.374;2023-08-31T01:35:38;13.60;99.90
2497;DHT22;1259;48.306;14.374;2023-08-31T01:38:07;13.70;99.90
2497;DHT22;1259;48.306;14.374;2023-08-31T01:40:36;13.60;99.90
2497;DHT22;1259;48.306;14.374;2023-08-31T01:43:06;13.50;99.90
2497;DHT22;1259;48.306;14.374;2023-08-31T01:45:32;13.50;99.90
2497;DHT22;1259;48.306;14.374;2023-08-31T01:48:00;13.50;99.90
2497;DHT22;1259;48.306;14.374;2023-08-31T01:50:27;13.40;99.90
2497;DHT22;1259;48.306;14.374;2023-08-31T01:52:54;13.40;99.90
2497;DHT22;1259;48.306;14.374;2023-08-31T01:55:21;13.40;99.90
2497;DHT22;1259;48.306;14.374;2023-08-31T01:57:47;13.40;99.90
2497;DHT22;1259;48.306;14.374;2023-08-31T02:00:16;13.40;99.90
2497;DHT22;1259;48.306;14.374;2023-08-31T02:02:43;13.30;99.90
2497;DHT22;1259;48.306;14.374;2023-08-31T02:05:10;13.30;99.90
2497;DHT22;1259;48.306;14.374;2023-08-31T02:07:36;13.40;99.90
2497;DHT22;1259;48.306;14.374;2023-08-31T02:10:03;13.30;99.90
2497;DHT22;1259;48.306;14.374;2023-08-31T02:12:31;13.20;99.90
2497;DHT22;1259;48.306;14.374;2023-08-31T02:14:58;13.20;99.90
2497;DHT22;1259;48.306;14.374;2023-08-31T02:17:26;13.20;99.90
2497;DHT22;1259;48.306;14.374;2023-08-31T02:19:52;13.30;99.90
2497;DHT22;1259;48.306;14.374;2023-08-31T02:22:19;13.30;99.90
2497;DHT22;1259;48.306;14.374;2023-08-31T02:24:46;13.40;99.90
2497;DHT22;1259;48.306;14.374;2023-08-31T02:27:12;13.50;99.90
2497;DHT22;1259;48.306;14.374;2023-08-31T02:29:39;13.50;99.90
2497;DHT22;1259;48.306;14.374;2023-08-31T02:32:07;13.60;99.90
2497;DHT22;1259;48.306;14.374;2023-08-31T02:34:35;13.50;99.90
2497;DHT22;1259;48.306;14.374;2023-08-31T02:37:02;13.50;99.90
2497;DHT22;1259;48.306;14.374;2023-08-31T02:39:29;13.60;99.90
2497;DHT22;1259;48.306;14.374;2023-08-31T02:41:55;13.70;99.90
2497;DHT22;1259;48.306;14.374;2023-08-31T02:44:23;13.60;99.90
2497;DHT22;1259;48.306;14.374;2023-08-31T02:46:50;13.70;99.90
2497;DHT22;1259;48.306;14.374;2023-08-31T02:49:16;13.70;99.90
2497;DHT22;1259;48.306;14.374;2023-08-31T02:51:44;13.60;99.90
2497;DHT22;1259;48.306;14.374;2023-08-31T02:54:12;13.70;99.90
2497;DHT22;1259;48.306;14.374;2023-08-31T02:56:39;13.60;99.90
2497;DHT22;1259;48.306;14.374;2023-08-31T02:59:05;13.60;99.90
2497;DHT22;1259;48.306;14.374;2023-08-31T03:01:32;13.70;99.90
2497;DHT22;1259;48.306;14.374;2023-08-31T03:03:59;13.80;99.90
2497;DHT22;1259;48.306;14.374;2023-08-31T03:06:25;13.80;99.90
2497;DHT22;1259;48.306;14.374;2023-08-31T03:08:53;13.70;99.90
2497;DHT22;1259;48.306;14.374;2023-08-31T03:11:20;13.70;99.90
2497;DHT22;1259;48.306;14.374;2023-08-31T03:13:47;13.80;99.90
2497;DHT22;1259;48.306;14.374;2023-08-31T03:16:13;13.80;99.90
2497;DHT22;1259;48.306;14.374;2023-08-31T03:18:40;13.80;99.90
2497;DHT22;1259;48.306;14.374;2023-08-31T03:21:07;13.80;99.90
2497;DHT22;1259;48.306;14.374;2023-08-31T03:23:34;13.80;99.90
2497;DHT22;1259;48.306;14.374;2023-08-31T03:26:07;13.70;99.90
2497;DHT22;1259;48.306;14.374;2023-08-31T03:28:34;13.70;99.90
2497;DHT22;1259;48.306;14.374;2023-08-31T03:31:01;13.70;99.90
2497;DHT22;1259;48.306;14.374;2023-08-31T03:33:27;13.80;99.90
2497;DHT22;1259;48.306;14.374;2023-08-31T03:35:54;13.80;99.90
2497;DHT22;1259;48.306;14.374;2023-08-31T03:38:25;13.80;99.90
2497;DHT22;1259;48.306;14.374;2023-08-31T03:40:53;13.60;99.90
2497;DHT22;1259;48.306;14.374;2023-08-31T03:43:21;13.60;99.90
2497;DHT22;1259;48.306;14.374;2023-08-31T03:45:48;13.50;99.90
2497;DHT22;1259;48.306;14.374;2023-08-31T03:48:14;13.60;99.90
2497;DHT22;1259;48.306;14.374;2023-08-31T03:50:41;13.50;99.90
2497;DHT22;1259;48.306;14.374;2023-08-31T03:53:08;13.40;99.90
2497;DHT22;1259;48.306;14.374;2023-08-31T03:55:35;13.40;99.90
2497;DHT22;1259;48.306;14.374;2023-08-31T03:58:02;13.40;99.90
2497;DHT22;1259;48.306;14.374;2023-08-31T04:00:30;13.50;99.90
2497;DHT22;1259;48.306;14.374;2023-08-31T04:02:57;13.50;99.90
2497;DHT22;1259;48.306;14.374;2023-08-31T04:05:24;13.50;99.90
2497;DHT22;1259;48.306;14.374;2023-08-31T04:07:50;13.40;99.90
2497;DHT22;1259;48.306;14.374;2023-08-31T04:10:17;13.50;99.90
2497;DHT22;1259;48.306;14.374;2023-08-31T04:12:44;13.40;99.90
2497;DHT22;1259;48.306;14.374;2023-08-31T04:15:12;13.40;99.90
2497;DHT22;1259;48.306;14.374;2023-08-31T04:17:40;13.40;99.90
2497;DHT22;1259;48.306;14.374;2023-08-31T04:20:07;13.40;99.90
2497;DHT22;1259;48.306;14.374;2023-08-31T04:22:34;13.30;99.90
2497;DHT22;1259;48.306;14.374;2023-08-31T04:25:01;13.30;99.90
2497;DHT22;1259;48.306;14.374;2023-08-31T04:27:27;13.30;99.90
2497;DHT22;1259;48.306;14.374;2023-08-31T04:29:56;13.30;99.90
2497;DHT22;1259;48.306;14.374;2023-08-31T04:32:23;13.30;99.90
2497;DHT22;1259;48.306;14.374;2023-08-31T04:34:52;13.30;99.90
2497;DHT22;1259;48.306;14.374;2023-08-31T04:37:19;13.20;99.90
2497;DHT22;1259;48.306;14.374;2023-08-31T04:39:45;13.20;99.90
2497;DHT22;1259;48.306;14.374;2023-08-31T04:42:12;13.20;99.90
2497;DHT22;1259;48.306;14.374;2023-08-31T04:44:39;13.20;99.90
2497;DHT22;1259;48.306;14.374;2023-08-31T04:47:05;13.20;99.90
2497;DHT22;1259;48.306;14.374;2023-08-31T04:49:32;13.20;99.90
2497;DHT22;1259;48.306;14.374;2023-08-31T04:52:00;13.20;99.90
2497;DHT22;1259;48.306;14.374;2023-08-31T04:54:27;13.20;99.90
2497;DHT22;1259;48.306;14.374;2023-08-31T04:56:54;13.20;99.90
2497;DHT22;1259;48.306;14.374;2023-08-31T04:59:21;13.10;99.90
2497;DHT22;1259;48.306;14.374;2023-08-31T05:01:47;13.10;99.90
2497;DHT22;1259;48.306;14.374;2023-08-31T05:04:14;13.10;99.90
2497;DHT22;1259;48.306;14.374;2023-08-31T05:06:40;13.30;99.90
2497;DHT22;1259;48.306;14.374;2023-08-31T05:09:09;13.30;99.90
2497;DHT22;1259;48.306;14.374;2023-08-31T05:11:35;13.30;99.90
2497;DHT22;1259;48.306;14.374;2023-08-31T05:14:02;13.30;99.90
2497;DHT22;1259;48.306;14.374;2023-08-31T05:16:29;13.30;99.90
2497;DHT22;1259;48.306;14.374;2023-08-31T05:18:55;13.40;99.90
2497;DHT22;1259;48.306;14.374;2023-08-31T05:21:22;13.60;99.90
2497;DHT22;1259;48.306;14.374;2023-08-31T05:23:49;13.50;99.90
2497;DHT22;1259;48.306;14.374;2023-08-31T05:26:17;13.60;99.90
2497;DHT22;1259;48.306;14.374;2023-08-31T05:28:43;13.60;99.90
2497;DHT22;1259;48.306;14.374;2023-08-31T05:31:10;13.70;99.90
2497;DHT22;1259;48.306;14.374;2023-08-31T05:33:37;13.80;99.90
2497;DHT22;1259;48.306;14.374;2023-08-31T05:36:03;13.90;99.90
2497;DHT22;1259;48.306;14.374;2023-08-31T05:38:30;14.00;99.90
2497;DHT22;1259;48.306;14.374;2023-08-31T05:41:03;14.00;99.90
2497;DHT22;1259;48.306;14.374;2023-08-31T05:43:33;14.00;99.90
2497;DHT22;1259;48.306;14.374;2023-08-31T05:46:00;13.90;99.90
2497;DHT22;1259;48.306;14.374;2023-08-31T05:48:26;14.00;99.90
2497;DHT22;1259;48.306;14.374;2023-08-31T05:50:53;14.00;99.90
2497;DHT22;1259;48.306;14.374;2023-08-31T05:53:20;13.90;99.90
2497;DHT22;1259;48.306;14.374;2023-08-31T05:55:46;14.00;99.90
2497;DHT22;1259;48.306;14.374;2023-08-31T05:58:13;13.90;99.90
2497;DHT22;1259;48.306;14.374;2023-08-31T06:00:41;13.80;99.90
2497;DHT22;1259;48.306;14.374;2023-08-31T06:03:08;13.90;99.90
2497;DHT22;1259;48.306;14.374;2023-08-31T06:05:35;13.90;99.90
2497;DHT22;1259;48.306;14.374;2023-08-31T06:08:04;13.90;99.90
2497;DHT22;1259;48.306;14.374;2023-08-31T06:10:30;13.80;99.90
2497;DHT22;1259;48.306;14.374;2023-08-31T06:12:57;13.80;99.90
2497;DHT22;1259;48.306;14.374;2023-08-31T06:15:24;14.00;99.90
2497;DHT22;1259;48.306;14.374;2023-08-31T06:17:52;13.90;99.90
2497;DHT22;1259;48.306;14.374;2023-08-31T06:20:18;13.90;99.90
2497;DHT22;1259;48.306;14.374;2023-08-31T06:22:45;14.00;99.90
2497;DHT22;1259;48.306;14.374;2023-08-31T06:25:12;14.00;99.90
2497;DHT22;1259;48.306;14.374;2023-08-31T06:27:41;13.90;99.90
2497;DHT22;1259;48.306;14.374;2023-08-31T06:30:08;14.00;99.90
2497;DHT22;1259;48.306;14.374;2023-08-31T06:32:37;14.10;99.90
2497;DHT22;1259;48.306;14.374;2023-08-31T06:35:06;14.30;99.90
2497;DHT22;1259;48.306;14.374;2023-08-31T06:37:32;14.30;99.90
2497;DHT22;1259;48.306;14.374;2023-08-31T06:39:59;14.30;99.90
2497;DHT22;1259;48.306;14.374;2023-08-31T06:42:26;14.40;99.90
2497;DHT22;1259;48.306;14.374;2023-08-31T06:44:52;14.30;99.90
2497;DHT22;1259;48.306;14.374;2023-08-31T06:47:21;14.40;99.90
2497;DHT22;1259;48.306;14.374;2023-08-31T06:49:48;14.30;99.90
2497;DHT22;1259;48.306;14.374;2023-08-31T06:52:16;14.20;99.90
2497;DHT22;1259;48.306;14.374;2023-08-31T06:54:43;14.20;99.90
2497;DHT22;1259;48.306;14.374;2023-08-31T06:57:09;14.40;99.90
2497;DHT22;1259;48.306;14.374;2023-08-31T06:59:36;14.20;99.90
2497;DHT22;1259;48.306;14.374;2023-08-31T07:02:03;14.30;99.90
2497;DHT22;1259;48.306;14.374;2023-08-31T07:04:29;14.30;99.90
2497;DHT22;1259;48.306;14.374;2023-08-31T07:06:56;14.30;99.90
2497;DHT22;1259;48.306;14.374;2023-08-31T07:09:24;14.40;99.90
2497;DHT22;1259;48.306;14.374;2023-08-31T07:11:52;14.30;99.90
2497;DHT22;1259;48.306;14.374;2023-08-31T07:14:19;14.40;99.90
2497;DHT22;1259;48.306;14.374;2023-08-31T07:16:45;14.30;99.90
2497;DHT22;1259;48.306;14.374;2023-08-31T07:19:12;14.40;99.90
2497;DHT22;1259;48.306;14.374;2023-08-31T07:21:39;14.50;99.90
2497;DHT22;1259;48.306;14.374;2023-08-31T07:24:05;14.60;99.90
2497;DHT22;1259;48.306;14.374;2023-08-31T07:26:33;14.80;99.90
2497;DHT22;1259;48.306;14.374;2023-08-31T07:29:00;14.70;99.90
2497;DHT22;1259;48.306;14.374;2023-08-31T07:31:29;14.70;99.90
2497;DHT22;1259;48.306;14.374;2023-08-31T07:33:56;14.70;99.90
2497;DHT22;1259;48.306;14.374;2023-08-31T07:36:23;14.70;99.90
2497;DHT22;1259;48.306;14.374;2023-08-31T07:38:50;14.70;99.90
2497;DHT22;1259;48.306;14.374;2023-08-31T07:41:17;14.90;99.90
2497;DHT22;1259;48.306;14.374;2023-08-31T07:43:45;15.10;99.90
2497;DHT22;1259;48.306;14.374;2023-08-31T07:46:11;15.10;99.90
2497;DHT22;1259;48.306;14.374;2023-08-31T07:48:38;15.20;99.90
2497;DHT22;1259;48.306;14.374;2023-08-31T07:51:05;15.40;99.90
2497;DHT22;1259;48.306;14.374;2023-08-31T07:53:31;15.50;99.90
2497;DHT22;1259;48.306;14.374;2023-08-31T07:55:58;15.70;99.90
2497;DHT22;1259;48.306;14.374;2023-08-31T07:58:25;15.70;99.90
2497;DHT22;1259;48.306;14.374;2023-08-31T08:00:53;15.60;99.90
2497;DHT22;1259;48.306;14.374;2023-08-31T08:03:20;15.80;99.90
2497;DHT22;1259;48.306;14.374;2023-08-31T08:05:47;15.90;99.90
2497;DHT22;1259;48.306;14.374;2023-08-31T08:08:14;15.90;99.90
2497;DHT22;1259;48.306;14.374;2023-08-31T08:10:40;16.10;99.90
2497;DHT22;1259;48.306;14.374;2023-08-31T08:13:08;16.10;99.90
2497;DHT22;1259;48.306;14.374;2023-08-31T08:15:35;16.00;99.90
2497;DHT22;1259;48.306;14.374;2023-08-31T08:18:03;15.90;99.90
2497;DHT22;1259;48.306;14.374;2023-08-31T08:20:30;15.90;99.90
2497;DHT22;1259;48.306;14.374;2023-08-31T08:22:57;16.10;99.90
2497;DHT22;1259;48.306;14.374;2023-08-31T08:25:25;16.10;99.90
2497;DHT22;1259;48.306;14.374;2023-08-31T08:27:51;16.40;99.90
2497;DHT22;1259;48.306;14.374;2023-08-31T08:30:18;16.70;99.90
2497;DHT22;1259;48.306;14.374;2023-08-31T08:32:45;16.70;99.90
2497;DHT22;1259;48.306;14.374;2023-08-31T08:35:13;16.70;99.90
2497;DHT22;1259;48.306;14.374;2023-08-31T08:37:39;16.70;99.90
2497;DHT22;1259;48.306;14.374;2023-08-31T08:40:06;16.70;99.90
2497;DHT22;1259;48.306;14.374;2023-08-31T08:42:35;16.60;99.90
2497;DHT22;1259;48.306;14.374;2023-08-31T08:45:04;16.60;99.90
2497;DHT22;1259;48.306;14.374;2023-08-31T08:47:32;16.60;99.90
2497;DHT22;1259;48.306;14.374;2023-08-31T08:49:59;16.60;99.90
2497;DHT22;1259;48.306;14.374;2023-08-31T08:52:27;16.50;99.90
2497;DHT22;1259;48.306;14.374;2023-08-31T08:54:54;16.50;99.90
2497;DHT22;1259;48.306;14.374;2023-08-31T08:57:22;16.60;99.90
2497;DHT22;1259;48.306;14.374;2023-08-31T08:59:49;16.80;99.90
2497;DHT22;1259;48.306;14.374;2023-08-31T09:02:16;17.00;99.90
2497;DHT22;1259;48.306;14.374;2023-08-31T09:04:42;17.00;99.90
2497;DHT22;1259;48.306;14.374;2023-08-31T09:07:09;17.20;99.90
2497;DHT22;1259;48.306;14.374;2023-08-31T09:09:49;17.30;99.90
2497;DHT22;1259;48.306;14.374;2023-08-31T09:12:16;17.20;99.90
2497;DHT22;1259;48.306;14.374;2023-08-31T09:14:43;17.40;99.90
2497;DHT22;1259;48.306;14.374;2023-08-31T09:17:09;17.40;99.90
2497;DHT22;1259;48.306;14.374;2023-08-31T09:19:36;17.50;99.90
2497;DHT22;1259;48.306;14.374;2023-08-31T09:22:03;17.50;99.90
2497;DHT22;1259;48.306;14.374;2023-08-31T09:24:39;17.40;99.90
2497;DHT22;1259;48.306;14.374;2023-08-31T09:27:07;17.50;99.90
2497;DHT22;1259;48.306;14.374;2023-08-31T09:29:37;17.50;99.90
2497;DHT22;1259;48.306;14.374;2023-08-31T09:32:04;17.50;99.90
2497;DHT22;1259;48.306;14.374;2023-08-31T09:34:32;17.50;99.90
2497;DHT22;1259;48.306;14.374;2023-08-31T09:37:03;17.50;99.90
2497;DHT22;1259;48.306;14.374;2023-08-31T09:39:37;17.50;99.90
2497;DHT22;1259;48.306;14.374;2023-08-31T09:42:04;17.40;99.90
2497;DHT22;1259;48.306;14.374;2023-08-31T09:44:32;17.30;99.90
2497;DHT22;1259;48.306;14.374;2023-08-31T09:46:59;17.20;99.90
2497;DHT22;1259;48.306;14.374;2023-08-31T09:49:26;17.30;99.90
2497;DHT22;1259;48.306;14.374;2023-08-31T09:51:53;17.30;99.90
2497;DHT22;1259;48.306;14.374;2023-08-31T09:54:20;17.40;99.90
2497;DHT22;1259;48.306;14.374;2023-08-31T09:56:49;17.40;99.90
2497;DHT22;1259;48.306;14.374;2023-08-31T09:59:15;17.40;99.90
2497;DHT22;1259;48.306;14.374;2023-08-31T10:01:44;17.30;99.90
2497;DHT22;1259;48.306;14.374;2023-08-31T10:04:11;17.30;99.90
2497;DHT22;1259;48.306;14.374;2023-08-31T10:06:38;17.40;99.90
2497;DHT22;1259;48.306;14.374;2023-08-31T10:09:05;17.40;99.90
2497;DHT22;1259;48.306;14.374;2023-08-31T10:11:35;17.30;99.90
2497;DHT22;1259;48.306;14.374;2023-08-31T10:14:02;17.40;99.90
2497;DHT22;1259;48.306;14.374;2023-08-31T10:16:30;17.30;99.90
2497;DHT22;1259;48.306;14.374;2023-08-31T10:18:58;17.40;99.90
2497;DHT22;1259;48.306;14.374;2023-08-31T10:21:25;17.30;99.90
2497;DHT22;1259;48.306;14.374;2023-08-31T10:23:52;17.50;99.90
2497;DHT22;1259;48.306;14.374;2023-08-31T10:26:25;17.50;99.90
2497;DHT22;1259;48.306;14.374;2023-08-31T10:28:52;17.50;99.90
2497;DHT22;1259;48.306;14.374;2023-08-31T10:31:19;17.40;99.90
2497;DHT22;1259;48.306;14.374;2023-08-31T10:33:54;17.30;99.90
2497;DHT22;1259;48.306;14.374;2023-08-31T10:36:33;17.10;99.90
2497;DHT22;1259;48.306;14.374;2023-08-31T10:39:01;17.10;99.90
2497;DHT22;1259;48.306;14.374;2023-08-31T10:41:32;17.00;99.90
2497;DHT22;1259;48.306;14.374;2023-08-31T10:43:59;17.10;99.90
2497;DHT22;1259;48.306;14.374;2023-08-31T10:46:27;17.10;99.90
2497;DHT22;1259;48.306;14.374;2023-08-31T10:48:53;17.10;99.90
2497;DHT22;1259;48.306;14.374;2023-08-31T10:51:25;17.10;99.90
2497;DHT22;1259;48.306;14.374;2023-08-31T10:53:51;17.20;99.90
2497;DHT22;1259;48.306;14.374;2023-08-31T10:56:18;17.30;99.90
2497;DHT22;1259;48.306;14.374;2023-08-31T10:58:57;17.30;99.90
2497;DHT22;1259;48.306;14.374;2023-08-31T11:04:18;17.20;99.90
2497;DHT22;1259;48.306;14.374;2023-08-31T11:06:46;17.30;99.90
2497;DHT22;1259;48.306;14.374;2023-08-31T11:09:17;17.40;99.90
2497;DHT22;1259;48.306;14.374;2023-08-31T11:11:44;17.40;99.90
2497;DHT22;1259;48.306;14.374;2023-08-31T11:14:11;17.50;99.90
2497;DHT22;1259;48.306;14.374;2023-08-31T11:16:37;17.30;99.90
2497;DHT22;1259;48.306;14.374;2023-08-31T11:19:04;17.30;99.90
2497;DHT22;1259;48.306;14.374;2023-08-31T11:21:31;17.40;99.90
2497;DHT22;1259;48.306;14.374;2023-08-31T11:23:59;17.50;99.90
2497;DHT22;1259;48.306;14.374;2023-08-31T11:26:26;17.50;99.90
2497;DHT22;1259;48.306;14.374;2023-08-31T11:28:55;17.50;99.90
2497;DHT22;1259;48.306;14.374;2023-08-31T11:31:25;17.40;99.90
2497;DHT22;1259;48.306;14.374;2023-08-31T11:33:52;17.40;99.90
2497;DHT22;1259;48.306;14.374;2023-08-31T11:36:20;17.60;99.90
2497;DHT22;1259;48.306;14.374;2023-08-31T11:38:47;17.60;99.90
2497;DHT22;1259;48.306;14.374;2023-08-31T11:41:15;17.80;99.90
2497;DHT22;1259;48.306;14.374;2023-08-31T11:43:42;17.80;99.90
2497;DHT22;1259;48.306;14.374;2023-08-31T11:46:08;17.80;99.90
2497;DHT22;1259;48.306;14.374;2023-08-31T11:48:35;17.80;99.90
2497;DHT22;1259;48.306;14.374;2023-08-31T11:51:02;17.70;99.90
2497;DHT22;1259;48.306;14.374;2023-08-31T11:53:29;17.80;99.90
2497;DHT22;1259;48.306;14.374;2023-08-31T11:55:56;18.00;99.90
2497;DHT22;1259;48.306;14.374;2023-08-31T11:58:25;18.00;99.90
2497;DHT22;1259;48.306;14.374;2023-08-31T12:00:56;18.10;99.90
2497;DHT22;1259;48.306;14.374;2023-08-31T12:03:23;18.00;99.90
2497;DHT22;1259;48.306;14.374;2023-08-31T12:05:51;17.80;99.90
2497;DHT22;1259;48.306;14.374;2023-08-31T12:08:23;17.70;99.90
2497;DHT22;1259;48.306;14.374;2023-08-31T12:10:50;17.70;99.90
2497;DHT22;1259;48.306;14.374;2023-08-31T12:13:17;17.70;99.90
2497;DHT22;1259;48.306;14.374;2023-08-31T12:15:45;17.80;99.90
2497;DHT22;1259;48.306;14.374;2023-08-31T12:18:12;18.00;99.90
2497;DHT22;1259;48.306;14.374;2023-08-31T12:20:42;17.80;99.90
2497;DHT22;1259;48.306;14.374;2023-08-31T12:23:09;18.00;99.90
2497;DHT22;1259;48.306;14.374;2023-08-31T12:25:36;17.90;99.90
2497;DHT22;1259;48.306;14.374;2023-08-31T12:28:03;17.80;99.90
2497;DHT22;1259;48.306;14.374;2023-08-31T12:30:30;18.00;99.90
2497;DHT22;1259;48.306;14.374;2023-08-31T12:32:58;18.20;99.90
2497;DHT22;1259;48.306;14.374;2023-08-31T12:35:25;18.40;99.90
2497;DHT22;1259;48.306;14.374;2023-08-31T12:37:51;18.60;99.90
2497;DHT22;1259;48.306;14.374;2023-08-31T12:40:18;18.70;99.90
2497;DHT22;1259;48.306;14.374;2023-08-31T12:42:45;18.50;99.90
2497;DHT22;1259;48.306;14.374;2023-08-31T12:45:12;18.50;99.90
2497;DHT22;1259;48.306;14.374;2023-08-31T12:47:39;18.50;99.90
2497;DHT22;1259;48.306;14.374;2023-08-31T12:50:07;18.60;99.90
2497;DHT22;1259;48.306;14.374;2023-08-31T12:52:34;18.50;99.90
2497;DHT22;1259;48.306;14.374;2023-08-31T12:55:01;18.30;99.90
2497;DHT22;1259;48.306;14.374;2023-08-31T12:57:29;18.30;99.90
2497;DHT22;1259;48.306;14.374;2023-08-31T12:59:56;18.40;99.90
2497;DHT22;1259;48.306;14.374;2023-08-31T13:02:22;18.30;99.90
2497;DHT22;1259;48.306;14.374;2023-08-31T13:04:49;18.40;99.90
2497;DHT22;1259;48.306;14.374;2023-08-31T13:07:17;18.40;99.90
2497;DHT22;1259;48.306;14.374;2023-08-31T13:09:44;18.60;99.90
2497;DHT22;1259;48.306;14.374;2023-08-31T13:12:11;18.50;99.90
2497;DHT22;1259;48.306;14.374;2023-08-31T13:14:38;18.50;99.90
2497;DHT22;1259;48.306;14.374;2023-08-31T13:17:04;18.40;99.90
2497;DHT22;1259;48.306;14.374;2023-08-31T13:19:31;18.50;99.90
2497;DHT22;1259;48.306;14.374;2023-08-31T13:21:58;18.40;99.90
2497;DHT22;1259;48.306;14.374;2023-08-31T13:24:26;18.50;99.90
2497;DHT22;1259;48.306;14.374;2023-08-31T13:26:53;18.50;99.90
2497;DHT22;1259;48.306;14.374;2023-08-31T13:29:20;18.50;99.90
2497;DHT22;1259;48.306;14.374;2023-08-31T13:31:47;18.40;99.90
2497;DHT22;1259;48.306;14.374;2023-08-31T13:34:14;18.30;99.90
2497;DHT22;1259;48.306;14.374;2023-08-31T13:36:41;18.40;99.90
2497;DHT22;1259;48.306;14.374;2023-08-31T13:39:07;18.40;99.90
2497;DHT22;1259;48.306;14.374;2023-08-31T13:41:36;18.40;99.90
2497;DHT22;1259;48.306;14.374;2023-08-31T13:44:03;18.50;99.90
2497;DHT22;1259;48.306;14.374;2023-08-31T13:46:30;18.30;99.90
2497;DHT22;1259;48.306;14.374;2023-08-31T13:48:57;18.40;99.90
2497;DHT22;1259;48.306;14.374;2023-08-31T13:51:24;18.30;99.90
2497;DHT22;1259;48.306;14.374;2023-08-31T13:53:50;18.30;99.90
2497;DHT22;1259;48.306;14.374;2023-08-31T13:56:17;18.40;99.90
2497;DHT22;1259;48.306;14.374;2023-08-31T13:58:45;18.50;99.90
2497;DHT22;1259;48.306;14.374;2023-08-31T14:01:12;18.60;99.90
2497;DHT22;1259;48.306;14.374;2023-08-31T14:03:38;18.50;99.90
2497;DHT22;1259;48.306;14.374;2023-08-31T14:06:06;18.30;99.90
2497;DHT22;1259;48.306;14.374;2023-08-31T14:08:33;18.40;99.90
2497;DHT22;1259;48.306;14.374;2023-08-31T14:11:00;18.40;99.90
2497;DHT22;1259;48.306;14.374;2023-08-31T14:13:27;18.40;99.90
2497;DHT22;1259;48.306;14.374;2023-08-31T14:15:55;18.30;99.90
2497;DHT22;1259;48.306;14.374;2023-08-31T14:18:22;18.40;99.90
2497;DHT22;1259;48.306;14.374;2023-08-31T14:20:50;18.50;99.90
2497;DHT22;1259;48.306;14.374;2023-08-31T14:23:17;18.40;99.90
2497;DHT22;1259;48.306;14.374;2023-08-31T14:25:44;18.30;99.90
2497;DHT22;1259;48.306;14.374;2023-08-31T14:28:11;18.40;99.90
2497;DHT22;1259;48.306;14.374;2023-08-31T14:30:38;18.40;99.90
2497;DHT22;1259;48.306;14.374;2023-08-31T14:33:06;18.40;99.90
2497;DHT22;1259;48.306;14.374;2023-08-31T14:35:35;18.50;99.90
2497;DHT22;1259;48.306;14.374;2023-08-31T14:38:02;18.60;99.90
2497;DHT22;1259;48.306;14.374;2023-08-31T14:40:29;18.60;99.90
2497;DHT22;1259;48.306;14.374;2023-08-31T14:42:55;18.60;99.90
2497;DHT22;1259;48.306;14.374;2023-08-31T14:45:22;18.30;99.90
2497;DHT22;1259;48.306;14.374;2023-08-31T14:47:49;18.20;99.90
2497;DHT22;1259;48.306;14.374;2023-08-31T14:50:17;18.20;99.90
2497;DHT22;1259;48.306;14.374;2023-08-31T14:52:44;18.30;99.90
2497;DHT22;1259;48.306;14.374;2023-08-31T14:55:10;18.20;99.90
2497;DHT22;1259;48.306;14.374;2023-08-31T14:57:37;18.30;99.90
2497;DHT22;1259;48.306;14.374;2023-08-31T15:00:07;18.20;99.90
2497;DHT22;1259;48.306;14.374;2023-08-31T15:02:35;18.20;99.90
2497;DHT22;1259;48.306;14.374;2023-08-31T15:05:01;18.30;99.90
2497;DHT22;1259;48.306;14.374;2023-08-31T15:07:31;18.30;99.90
2497;DHT22;1259;48.306;14.374;2023-08-31T15:09:58;18.30;99.90
2497;DHT22;1259;48.306;14.374;2023-08-31T15:12:25;18.40;99.90
2497;DHT22;1259;48.306;14.374;2023-08-31T15:14:52;18.40;99.90
2497;DHT22;1259;48.306;14.374;2023-08-31T15:17:18;18.40;99.90
2497;DHT22;1259;48.306;14.374;2023-08-31T15:19:45;18.60;99.90
2497;DHT22;1259;48.306;14.374;2023-08-31T15:22:12;18.70;99.90
2497;DHT22;1259;48.306;14.374;2023-08-31T15:24:40;18.70;99.90
2497;DHT22;1259;48.306;14.374;2023-08-31T15:27:07;18.60;99.90
2497;DHT22;1259;48.306;14.374;2023-08-31T15:29:34;18.50;99.90
2497;DHT22;1259;48.306;14.374;2023-08-31T15:32:01;18.40;99.90
2497;DHT22;1259;48.306;14.374;2023-08-31T15:34:28;18.30;99.90
2497;DHT22;1259;48.306;14.374;2023-08-31T15:36:55;18.20;99.90
2497;DHT22;1259;48.306;14.374;2023-08-31T15:39:23;18.20;99.90
2497;DHT22;1259;48.306;14.374;2023-08-31T15:41:51;18.20;99.90
2497;DHT22;1259;48.306;14.374;2023-08-31T15:44:18;18.30;99.90
2497;DHT22;1259;48.306;14.374;2023-08-31T15:46:44;18.20;99.90
2497;DHT22;1259;48.306;14.374;2023-08-31T15:49:12;18.20;99.90